sensor_id;sensor_type;location;lat;lon;timestamp;P1;durP1;ratioP1;P2;durP2;ratioP2
11590;SDS011;5851;54.050;9.974;2023-07-28T00:02:05;6.90;;;4.10;;
11590;SDS011;5851;54.050;9.974;2023-07-28T00:04:33;4.07;;;3.67;;
11590;SDS011;5851;54.050;9.974;2023-07-28T00:07:00;3.93;;;3.60;;
11590;SDS011;5851;54.050;9.974;2023-07-28T00:09:27;4.70;;;3.73;;
11590;SDS011;5851;54.050;9.974;2023-07-28T00:11:55;3.87;;;3.37;;
11590;SDS011;5851;54.050;9.974;2023-07-28T00:14:22;3.60;;;3.30;;
11590;SDS011;5851;54.050;9.974;2023-07-28T00:16:51;4.57;;;4.00;;
11590;SDS011;5851;54.050;9.974;2023-07-28T00:19:18;5.30;;;4.60;;
11590;SDS011;5851;54.050;9.974;2023-07-28T00:21:46;4.83;;;4.33;;
11590;SDS011;5851;54.050;9.974;2023-07-28T00:24:13;4.50;;;4.10;;
11590;SDS011;5851;54.050;9.974;2023-07-28T00:26:40;4.73;;;4.23;;
11590;SDS011;5851;54.050;9.974;2023-07-28T00:29:07;4.03;;;3.63;;
11590;SDS011;5851;54.050;9.974;2023-07-28T00:31:34;4.53;;;4.10;;
11590;SDS011;5851;54.050;9.974;2023-07-28T00:34:03;4.27;;;3.87;;
11590;SDS011;5851;54.050;9.974;2023-07-28T00:36:30;5.20;;;4.23;;
11590;SDS011;5851;54.050;9.974;2023-07-28T00:38:58;4.63;;;4.13;;
11590;SDS011;5851;54.050;9.974;2023-07-28T00:41:25;5.27;;;4.33;;
11590;SDS011;5851;54.050;9.974;2023-07-28T00:43:52;5.17;;;4.67;;
11590;SDS011;5851;54.050;9.974;2023-07-28T00:46:19;4.82;;;4.38;;
11590;SDS011;5851;54.050;9.974;2023-07-28T00:48:46;5.07;;;4.57;;
11590;SDS011;5851;54.050;9.974;2023-07-28T00:51:14;4.90;;;4.50;;
11590;SDS011;5851;54.050;9.974;2023-07-28T00:53:42;4.63;;;4.10;;
11590;SDS011;5851;54.050;9.974;2023-07-28T00:56:10;5.20;;;4.33;;
11590;SDS011;5851;54.050;9.974;2023-07-28T00:58:37;4.73;;;4.23;;
11590;SDS011;5851;54.050;9.974;2023-07-28T01:01:04;4.53;;;4.13;;
11590;SDS011;5851;54.050;9.974;2023-07-28T01:03:31;4.07;;;3.67;;
11590;SDS011;5851;54.050;9.974;2023-07-28T01:06:01;4.80;;;3.78;;
11590;SDS011;5851;54.050;9.974;2023-07-28T01:08:38;5.00;;;4.50;;
11590;SDS011;5851;54.050;9.974;2023-07-28T01:11:11;4.70;;;3.92;;
11590;SDS011;5851;54.050;9.974;2023-07-28T01:13:37;4.90;;;4.40;;
11590;SDS011;5851;54.050;9.974;2023-07-28T01:16:05;4.33;;;3.73;;
11590;SDS011;5851;54.050;9.974;2023-07-28T01:18:34;5.78;;;4.70;;
11590;SDS011;5851;54.050;9.974;2023-07-28T01:21:02;5.10;;;4.60;;
11590;SDS011;5851;54.050;9.974;2023-07-28T01:23:35;5.10;;;4.60;;
11590;SDS011;5851;54.050;9.974;2023-07-28T01:26:08;5.20;;;4.70;;
11590;SDS011;5851;54.050;9.974;2023-07-28T01:28:39;5.50;;;5.00;;
11590;SDS011;5851;54.050;9.974;2023-07-28T01:31:07;5.20;;;4.40;;
11590;SDS011;5851;54.050;9.974;2023-07-28T01:33:35;5.20;;;4.70;;
11590;SDS011;5851;54.050;9.974;2023-07-28T01:36:02;5.20;;;4.70;;
11590;SDS011;5851;54.050;9.974;2023-07-28T01:38:29;4.70;;;4.17;;
11590;SDS011;5851;54.050;9.974;2023-07-28T01:40:56;5.00;;;4.50;;
11590;SDS011;5851;54.050;9.974;2023-07-28T01:43:23;5.20;;;4.70;;
11590;SDS011;5851;54.050;9.974;2023-07-28T01:45:51;5.30;;;4.80;;
11590;SDS011;5851;54.050;9.974;2023-07-28T01:48:18;6.07;;;4.53;;
11590;SDS011;5851;54.050;9.974;2023-07-28T01:50:45;5.03;;;4.53;;
11590;SDS011;5851;54.050;9.974;2023-07-28T01:53:12;5.67;;;4.20;;
11590;SDS011;5851;54.050;9.974;2023-07-28T01:55:39;4.53;;;4.13;;
11590;SDS011;5851;54.050;9.974;2023-07-28T01:58:06;5.63;;;4.63;;
11590;SDS011;5851;54.050;9.974;2023-07-28T02:00:33;5.43;;;4.67;;
11590;SDS011;5851;54.050;9.974;2023-07-28T02:03:01;5.30;;;4.77;;
11590;SDS011;5851;54.050;9.974;2023-07-28T02:05:28;5.63;;;4.90;;
11590;SDS011;5851;54.050;9.974;2023-07-28T02:07:56;4.80;;;4.33;;
11590;SDS011;5851;54.050;9.974;2023-07-28T02:10:23;6.00;;;5.40;;
11590;SDS011;5851;54.050;9.974;2023-07-28T02:12:50;5.20;;;4.70;;
11590;SDS011;5851;54.050;9.974;2023-07-28T02:15:17;5.30;;;4.77;;
11590;SDS011;5851;54.050;9.974;2023-07-28T02:17:44;5.73;;;5.13;;
11590;SDS011;5851;54.050;9.974;2023-07-28T02:20:12;7.90;;;5.23;;
11590;SDS011;5851;54.050;9.974;2023-07-28T02:22:40;6.43;;;5.10;;
11590;SDS011;5851;54.050;9.974;2023-07-28T02:25:08;5.77;;;5.23;;
11590;SDS011;5851;54.050;9.974;2023-07-28T02:27:35;6.77;;;5.00;;
11590;SDS011;5851;54.050;9.974;2023-07-28T02:30:02;8.07;;;5.27;;
11590;SDS011;5851;54.050;9.974;2023-07-28T02:32:30;5.63;;;5.13;;
11590;SDS011;5851;54.050;9.974;2023-07-28T02:34:57;8.40;;;5.60;;
11590;SDS011;5851;54.050;9.974;2023-07-28T02:37:25;5.70;;;5.20;;
11590;SDS011;5851;54.050;9.974;2023-07-28T02:39:52;6.67;;;5.30;;
11590;SDS011;5851;54.050;9.974;2023-07-28T02:42:19;6.70;;;6.00;;
11590;SDS011;5851;54.050;9.974;2023-07-28T02:44:46;6.00;;;5.40;;
11590;SDS011;5851;54.050;9.974;2023-07-28T02:47:13;6.67;;;5.53;;
11590;SDS011;5851;54.050;9.974;2023-07-28T02:49:40;6.07;;;5.40;;
11590;SDS011;5851;54.050;9.974;2023-07-28T02:52:08;6.90;;;5.80;;
11590;SDS011;5851;54.050;9.974;2023-07-28T02:54:36;6.47;;;5.20;;
11590;SDS011;5851;54.050;9.974;2023-07-28T02:57:05;6.43;;;5.80;;
11590;SDS011;5851;54.050;9.974;2023-07-28T02:59:32;6.20;;;5.60;;
11590;SDS011;5851;54.050;9.974;2023-07-28T03:01:59;7.17;;;5.97;;
11590;SDS011;5851;54.050;9.974;2023-07-28T03:04:26;6.00;;;5.37;;
11590;SDS011;5851;54.050;9.974;2023-07-28T03:06:53;6.60;;;5.70;;
11590;SDS011;5851;54.050;9.974;2023-07-28T03:09:19;7.93;;;6.20;;
11590;SDS011;5851;54.050;9.974;2023-07-28T03:11:48;6.60;;;5.90;;
11590;SDS011;5851;54.050;9.974;2023-07-28T03:14:14;8.07;;;6.20;;
11590;SDS011;5851;54.050;9.974;2023-07-28T03:16:42;7.50;;;6.80;;
11590;SDS011;5851;54.050;9.974;2023-07-28T03:19:09;7.60;;;6.80;;
11590;SDS011;5851;54.050;9.974;2023-07-28T03:21:36;8.03;;;6.73;;
11590;SDS011;5851;54.050;9.974;2023-07-28T03:24:03;6.63;;;5.93;;
11590;SDS011;5851;54.050;9.974;2023-07-28T03:26:30;8.20;;;6.97;;
11590;SDS011;5851;54.050;9.974;2023-07-28T03:28:58;7.93;;;7.13;;
11590;SDS011;5851;54.050;9.974;2023-07-28T03:31:25;8.43;;;7.53;;
11590;SDS011;5851;54.050;9.974;2023-07-28T03:33:52;8.03;;;7.20;;
11590;SDS011;5851;54.050;9.974;2023-07-28T03:36:19;8.20;;;7.07;;
11590;SDS011;5851;54.050;9.974;2023-07-28T03:38:46;8.73;;;7.87;;
11590;SDS011;5851;54.050;9.974;2023-07-28T03:41:13;7.73;;;6.90;;
11590;SDS011;5851;54.050;9.974;2023-07-28T03:43:40;7.97;;;7.17;;
11590;SDS011;5851;54.050;9.974;2023-07-28T03:46:09;8.90;;;7.30;;
11590;SDS011;5851;54.050;9.974;2023-07-28T03:48:36;9.97;;;7.90;;
11590;SDS011;5851;54.050;9.974;2023-07-28T03:51:03;8.80;;;7.90;;
11590;SDS011;5851;54.050;9.974;2023-07-28T03:53:30;9.03;;;7.77;;
11590;SDS011;5851;54.050;9.974;2023-07-28T03:55:56;9.30;;;8.30;;
11590;SDS011;5851;54.050;9.974;2023-07-28T03:58:24;8.50;;;7.50;;
11590;SDS011;5851;54.050;9.974;2023-07-28T04:00:51;8.23;;;7.43;;
11590;SDS011;5851;54.050;9.974;2023-07-28T04:03:20;8.90;;;8.00;;
11590;SDS011;5851;54.050;9.974;2023-07-28T04:05:47;9.13;;;7.10;;
11590;SDS011;5851;54.050;9.974;2023-07-28T04:08:14;9.63;;;7.60;;
11590;SDS011;5851;54.050;9.974;2023-07-28T04:10:41;8.47;;;7.57;;
11590;SDS011;5851;54.050;9.974;2023-07-28T04:13:08;8.27;;;7.47;;
11590;SDS011;5851;54.050;9.974;2023-07-28T04:15:35;9.20;;;8.10;;
11590;SDS011;5851;54.050;9.974;2023-07-28T04:18:02;8.47;;;7.67;;
11590;SDS011;5851;54.050;9.974;2023-07-28T04:20:31;9.43;;;8.07;;
11590;SDS011;5851;54.050;9.974;2023-07-28T04:22:58;8.73;;;7.83;;
11590;SDS011;5851;54.050;9.974;2023-07-28T04:25:24;10.30;;;8.30;;
11590;SDS011;5851;54.050;9.974;2023-07-28T04:27:51;9.03;;;7.93;;
11590;SDS011;5851;54.050;9.974;2023-07-28T04:30:19;10.10;;;8.90;;
11590;SDS011;5851;54.050;9.974;2023-07-28T04:32:46;10.77;;;9.27;;
11590;SDS011;5851;54.050;9.974;2023-07-28T04:35:13;10.10;;;9.07;;
11590;SDS011;5851;54.050;9.974;2023-07-28T04:37:41;8.40;;;7.57;;
11590;SDS011;5851;54.050;9.974;2023-07-28T04:40:08;10.03;;;8.30;;
11590;SDS011;5851;54.050;9.974;2023-07-28T04:42:36;10.27;;;9.23;;
11590;SDS011;5851;54.050;9.974;2023-07-28T04:45:03;10.43;;;9.30;;
11590;SDS011;5851;54.050;9.974;2023-07-28T04:47:30;12.27;;;9.60;;
11590;SDS011;5851;54.050;9.974;2023-07-28T04:49:57;9.43;;;8.40;;
11590;SDS011;5851;54.050;9.974;2023-07-28T04:52:24;9.57;;;8.57;;
11590;SDS011;5851;54.050;9.974;2023-07-28T04:54:52;8.67;;;7.70;;
11590;SDS011;5851;54.050;9.974;2023-07-28T04:57:19;9.70;;;8.70;;
11590;SDS011;5851;54.050;9.974;2023-07-28T04:59:46;9.73;;;8.77;;
11590;SDS011;5851;54.050;9.974;2023-07-28T05:02:13;9.30;;;8.30;;
11590;SDS011;5851;54.050;9.974;2023-07-28T05:04:40;7.93;;;7.13;;
11590;SDS011;5851;54.050;9.974;2023-07-28T05:07:07;8.37;;;6.80;;
11590;SDS011;5851;54.050;9.974;2023-07-28T05:09:34;8.10;;;6.60;;
11590;SDS011;5851;54.050;9.974;2023-07-28T05:12:02;10.23;;;8.17;;
11590;SDS011;5851;54.050;9.974;2023-07-28T05:14:32;9.13;;;7.80;;
11590;SDS011;5851;54.050;9.974;2023-07-28T05:16:59;9.00;;;8.10;;
11590;SDS011;5851;54.050;9.974;2023-07-28T05:19:26;8.00;;;7.20;;
11590;SDS011;5851;54.050;9.974;2023-07-28T05:21:53;7.97;;;7.17;;
11590;SDS011;5851;54.050;9.974;2023-07-28T05:24:20;8.63;;;7.57;;
11590;SDS011;5851;54.050;9.974;2023-07-28T05:26:46;9.10;;;7.13;;
11590;SDS011;5851;54.050;9.974;2023-07-28T05:29:15;9.30;;;7.40;;
11590;SDS011;5851;54.050;9.974;2023-07-28T05:31:42;8.13;;;7.20;;
11590;SDS011;5851;54.050;9.974;2023-07-28T05:34:08;9.23;;;7.47;;
11590;SDS011;5851;54.050;9.974;2023-07-28T05:36:37;8.60;;;7.47;;
11590;SDS011;5851;54.050;9.974;2023-07-28T05:39:04;9.20;;;6.80;;
11590;SDS011;5851;54.050;9.974;2023-07-28T05:41:31;8.83;;;6.90;;
11590;SDS011;5851;54.050;9.974;2023-07-28T05:43:58;8.50;;;6.73;;
11590;SDS011;5851;54.050;9.974;2023-07-28T05:46:26;7.60;;;6.53;;
11590;SDS011;5851;54.050;9.974;2023-07-28T05:48:53;6.70;;;5.70;;
11590;SDS011;5851;54.050;9.974;2023-07-28T05:51:21;6.93;;;6.20;;
11590;SDS011;5851;54.050;9.974;2023-07-28T05:53:47;7.53;;;5.90;;
11590;SDS011;5851;54.050;9.974;2023-07-28T05:56:15;6.60;;;5.80;;
11590;SDS011;5851;54.050;9.974;2023-07-28T05:58:44;6.17;;;5.50;;
11590;SDS011;5851;54.050;9.974;2023-07-28T06:01:11;6.90;;;6.20;;
11590;SDS011;5851;54.050;9.974;2023-07-28T06:03:39;6.77;;;5.67;;
11590;SDS011;5851;54.050;9.974;2023-07-28T06:06:06;5.03;;;4.53;;
11590;SDS011;5851;54.050;9.974;2023-07-28T06:08:33;6.30;;;5.33;;
11590;SDS011;5851;54.050;9.974;2023-07-28T06:11:03;6.13;;;5.27;;
11590;SDS011;5851;54.050;9.974;2023-07-28T06:13:30;5.83;;;5.23;;
11590;SDS011;5851;54.050;9.974;2023-07-28T06:15:57;6.97;;;5.63;;
11590;SDS011;5851;54.050;9.974;2023-07-28T06:18:24;7.37;;;5.77;;
11590;SDS011;5851;54.050;9.974;2023-07-28T06:20:53;7.17;;;6.30;;
11590;SDS011;5851;54.050;9.974;2023-07-28T06:23:20;8.23;;;6.60;;
11590;SDS011;5851;54.050;9.974;2023-07-28T06:25:46;6.17;;;5.63;;
11590;SDS011;5851;54.050;9.974;2023-07-28T06:28:13;9.20;;;6.93;;
11590;SDS011;5851;54.050;9.974;2023-07-28T06:30:40;9.03;;;8.10;;
11590;SDS011;5851;54.050;9.974;2023-07-28T06:33:08;11.37;;;8.37;;
11590;SDS011;5851;54.050;9.974;2023-07-28T06:35:35;7.63;;;6.77;;
11590;SDS011;5851;54.050;9.974;2023-07-28T06:38:03;8.27;;;6.97;;
11590;SDS011;5851;54.050;9.974;2023-07-28T06:40:30;7.00;;;6.30;;
11590;SDS011;5851;54.050;9.974;2023-07-28T06:42:57;8.33;;;7.30;;
11590;SDS011;5851;54.050;9.974;2023-07-28T06:45:24;9.20;;;7.97;;
11590;SDS011;5851;54.050;9.974;2023-07-28T06:47:51;7.00;;;6.30;;
11590;SDS011;5851;54.050;9.974;2023-07-28T06:50:18;6.73;;;6.00;;
11590;SDS011;5851;54.050;9.974;2023-07-28T06:52:46;6.10;;;5.50;;
11590;SDS011;5851;54.050;9.974;2023-07-28T06:55:16;5.40;;;4.77;;
11590;SDS011;5851;54.050;9.974;2023-07-28T06:57:43;7.70;;;4.97;;
11590;SDS011;5851;54.050;9.974;2023-07-28T07:00:11;7.70;;;5.20;;
11590;SDS011;5851;54.050;9.974;2023-07-28T07:02:39;6.38;;;5.32;;
11590;SDS011;5851;54.050;9.974;2023-07-28T07:05:06;4.40;;;4.00;;
11590;SDS011;5851;54.050;9.974;2023-07-28T07:07:34;7.88;;;4.70;;
11590;SDS011;5851;54.050;9.974;2023-07-28T07:10:01;5.40;;;4.37;;
11590;SDS011;5851;54.050;9.974;2023-07-28T07:12:29;6.38;;;4.78;;
11590;SDS011;5851;54.050;9.974;2023-07-28T07:14:56;5.83;;;4.07;;
11590;SDS011;5851;54.050;9.974;2023-07-28T07:17:23;5.37;;;4.20;;
11590;SDS011;5851;54.050;9.974;2023-07-28T07:19:50;4.47;;;4.05;;
11590;SDS011;5851;54.050;9.974;2023-07-28T07:22:17;4.85;;;4.35;;
11590;SDS011;5851;54.050;9.974;2023-07-28T07:24:44;6.97;;;4.40;;
11590;SDS011;5851;54.050;9.974;2023-07-28T07:27:11;4.30;;;3.90;;
11590;SDS011;5851;54.050;9.974;2023-07-28T07:29:39;4.30;;;3.80;;
11590;SDS011;5851;54.050;9.974;2023-07-28T07:32:06;6.40;;;4.53;;
11590;SDS011;5851;54.050;9.974;2023-07-28T07:34:36;5.10;;;4.18;;
11590;SDS011;5851;54.050;9.974;2023-07-28T07:37:03;4.03;;;3.63;;
11590;SDS011;5851;54.050;9.974;2023-07-28T07:39:30;3.85;;;3.55;;
11590;SDS011;5851;54.050;9.974;2023-07-28T07:41:59;5.87;;;4.20;;
11590;SDS011;5851;54.050;9.974;2023-07-28T07:44:26;5.15;;;4.47;;
11590;SDS011;5851;54.050;9.974;2023-07-28T07:46:54;6.85;;;4.60;;
11590;SDS011;5851;54.050;9.974;2023-07-28T07:49:22;5.93;;;3.90;;
11590;SDS011;5851;54.050;9.974;2023-07-28T07:51:49;4.75;;;3.20;;
11590;SDS011;5851;54.050;9.974;2023-07-28T07:54:16;5.65;;;3.42;;
11590;SDS011;5851;54.050;9.974;2023-07-28T07:56:43;3.85;;;3.42;;
11590;SDS011;5851;54.050;9.974;2023-07-28T07:59:11;3.33;;;3.00;;
11590;SDS011;5851;54.050;9.974;2023-07-28T08:01:38;3.65;;;2.90;;
11590;SDS011;5851;54.050;9.974;2023-07-28T08:04:07;3.08;;;2.78;;
11590;SDS011;5851;54.050;9.974;2023-07-28T08:06:34;3.30;;;2.75;;
11590;SDS011;5851;54.050;9.974;2023-07-28T08:09:01;4.28;;;3.25;;
11590;SDS011;5851;54.050;9.974;2023-07-28T08:11:28;3.33;;;2.97;;
11590;SDS011;5851;54.050;9.974;2023-07-28T08:13:55;5.70;;;3.17;;
11590;SDS011;5851;54.050;9.974;2023-07-28T08:16:22;3.40;;;3.03;;
11590;SDS011;5851;54.050;9.974;2023-07-28T08:18:49;2.70;;;2.50;;
11590;SDS011;5851;54.050;9.974;2023-07-28T08:21:17;3.20;;;2.90;;
11590;SDS011;5851;54.050;9.974;2023-07-28T08:23:44;3.40;;;2.70;;
11590;SDS011;5851;54.050;9.974;2023-07-28T08:26:11;3.50;;;2.70;;
11590;SDS011;5851;54.050;9.974;2023-07-28T08:28:38;3.10;;;2.42;;
11590;SDS011;5851;54.050;9.974;2023-07-28T08:31:05;2.50;;;2.30;;
11590;SDS011;5851;54.050;9.974;2023-07-28T08:33:32;4.47;;;2.60;;
11590;SDS011;5851;54.050;9.974;2023-07-28T08:35:59;2.58;;;2.38;;
11590;SDS011;5851;54.050;9.974;2023-07-28T08:38:27;3.92;;;2.70;;
11590;SDS011;5851;54.050;9.974;2023-07-28T08:40:56;2.17;;;2.08;;
11590;SDS011;5851;54.050;9.974;2023-07-28T08:43:23;2.58;;;2.38;;
11590;SDS011;5851;54.050;9.974;2023-07-28T08:45:50;2.97;;;2.20;;
11590;SDS011;5851;54.050;9.974;2023-07-28T08:48:19;3.05;;;1.98;;
11590;SDS011;5851;54.050;9.974;2023-07-28T08:50:46;2.78;;;2.22;;
11590;SDS011;5851;54.050;9.974;2023-07-28T08:53:13;4.15;;;2.22;;
11590;SDS011;5851;54.050;9.974;2023-07-28T08:55:42;3.22;;;2.10;;
11590;SDS011;5851;54.050;9.974;2023-07-28T08:58:15;2.10;;;1.98;;
11590;SDS011;5851;54.050;9.974;2023-07-28T09:00:44;3.28;;;2.28;;
11590;SDS011;5851;54.050;9.974;2023-07-28T09:03:13;2.40;;;2.20;;
11590;SDS011;5851;54.050;9.974;2023-07-28T09:05:41;4.13;;;2.40;;
11590;SDS011;5851;54.050;9.974;2023-07-28T09:08:09;2.67;;;2.28;;
11590;SDS011;5851;54.050;9.974;2023-07-28T09:10:44;2.42;;;2.22;;
11590;SDS011;5851;54.050;9.974;2023-07-28T09:13:14;2.30;;;2.10;;
11590;SDS011;5851;54.050;9.974;2023-07-28T09:15:42;2.50;;;2.30;;
11590;SDS011;5851;54.050;9.974;2023-07-28T09:18:09;2.45;;;2.25;;
11590;SDS011;5851;54.050;9.974;2023-07-28T09:20:37;2.10;;;1.90;;
11590;SDS011;5851;54.050;9.974;2023-07-28T09:23:04;2.65;;;2.30;;
11590;SDS011;5851;54.050;9.974;2023-07-28T09:25:40;3.33;;;2.45;;
11590;SDS011;5851;54.050;9.974;2023-07-28T09:28:08;3.10;;;2.10;;
11590;SDS011;5851;54.050;9.974;2023-07-28T09:30:45;2.58;;;2.20;;
11590;SDS011;5851;54.050;9.974;2023-07-28T09:33:14;2.63;;;2.30;;
11590;SDS011;5851;54.050;9.974;2023-07-28T09:35:55;2.80;;;2.20;;
11590;SDS011;5851;54.050;9.974;2023-07-28T09:38:22;3.15;;;2.55;;
11590;SDS011;5851;54.050;9.974;2023-07-28T09:40:53;2.60;;;2.40;;
11590;SDS011;5851;54.050;9.974;2023-07-28T09:43:21;2.50;;;2.30;;
11590;SDS011;5851;54.050;9.974;2023-07-28T09:45:48;4.05;;;2.33;;
11590;SDS011;5851;54.050;9.974;2023-07-28T09:48:15;2.67;;;2.47;;
11590;SDS011;5851;54.050;9.974;2023-07-28T09:50:44;2.50;;;2.30;;
11590;SDS011;5851;54.050;9.974;2023-07-28T09:53:12;2.90;;;2.20;;
11590;SDS011;5851;54.050;9.974;2023-07-28T09:55:40;2.30;;;2.10;;
11590;SDS011;5851;54.050;9.974;2023-07-28T09:58:09;2.45;;;2.17;;
11590;SDS011;5851;54.050;9.974;2023-07-28T10:00:39;2.63;;;2.40;;
11590;SDS011;5851;54.050;9.974;2023-07-28T10:03:07;2.17;;;2.08;;
11590;SDS011;5851;54.050;9.974;2023-07-28T10:05:35;3.78;;;2.47;;
11590;SDS011;5851;54.050;9.974;2023-07-28T10:08:03;2.78;;;2.30;;
11590;SDS011;5851;54.050;9.974;2023-07-28T10:10:31;3.10;;;2.10;;
11590;SDS011;5851;54.050;9.974;2023-07-28T10:12:59;2.40;;;2.28;;
11590;SDS011;5851;54.050;9.974;2023-07-28T10:15:29;3.20;;;2.58;;
11590;SDS011;5851;54.050;9.974;2023-07-28T10:17:59;3.50;;;2.30;;
11590;SDS011;5851;54.050;9.974;2023-07-28T10:20:33;4.00;;;2.45;;
11590;SDS011;5851;54.050;9.974;2023-07-28T10:23:04;2.60;;;2.40;;
11590;SDS011;5851;54.050;9.974;2023-07-28T10:25:33;2.20;;;2.10;;
11590;SDS011;5851;54.050;9.974;2023-07-28T10:28:01;2.97;;;2.70;;
11590;SDS011;5851;54.050;9.974;2023-07-28T10:30:32;2.42;;;2.20;;
11590;SDS011;5851;54.050;9.974;2023-07-28T10:33:06;2.42;;;2.33;;
11590;SDS011;5851;54.050;9.974;2023-07-28T10:35:34;2.40;;;2.20;;
11590;SDS011;5851;54.050;9.974;2023-07-28T10:41:10;2.17;;;2.00;;
11590;SDS011;5851;54.050;9.974;2023-07-28T10:43:39;4.88;;;2.22;;
11590;SDS011;5851;54.050;9.974;2023-07-28T10:46:08;2.15;;;1.95;;
11590;SDS011;5851;54.050;9.974;2023-07-28T10:48:40;2.40;;;2.20;;
11590;SDS011;5851;54.050;9.974;2023-07-28T10:51:08;1.90;;;1.80;;
11590;SDS011;5851;54.050;9.974;2023-07-28T10:53:36;2.10;;;2.00;;
11590;SDS011;5851;54.050;9.974;2023-07-28T10:56:03;2.22;;;2.00;;
11590;SDS011;5851;54.050;9.974;2023-07-28T10:58:33;3.22;;;2.00;;
11590;SDS011;5851;54.050;9.974;2023-07-28T11:01:01;2.60;;;2.17;;
11590;SDS011;5851;54.050;9.974;2023-07-28T11:03:28;3.20;;;2.33;;
11590;SDS011;5851;54.050;9.974;2023-07-28T11:05:57;3.00;;;2.00;;
11590;SDS011;5851;54.050;9.974;2023-07-28T11:08:24;2.40;;;2.20;;
11590;SDS011;5851;54.050;9.974;2023-07-28T11:10:51;2.78;;;2.00;;
11590;SDS011;5851;54.050;9.974;2023-07-28T11:13:18;2.40;;;2.20;;
11590;SDS011;5851;54.050;9.974;2023-07-28T11:15:45;2.40;;;2.20;;
11590;SDS011;5851;54.050;9.974;2023-07-28T11:18:12;2.20;;;2.08;;
11590;SDS011;5851;54.050;9.974;2023-07-28T11:20:42;2.28;;;2.08;;
11590;SDS011;5851;54.050;9.974;2023-07-28T11:23:13;2.25;;;2.00;;
11590;SDS011;5851;54.050;9.974;2023-07-28T11:25:42;3.92;;;2.15;;
11590;SDS011;5851;54.050;9.974;2023-07-28T11:28:10;5.07;;;2.28;;
11590;SDS011;5851;54.050;9.974;2023-07-28T11:30:37;1.80;;;1.70;;
11590;SDS011;5851;54.050;9.974;2023-07-28T11:33:04;2.13;;;2.00;;
11590;SDS011;5851;54.050;9.974;2023-07-28T11:35:36;2.08;;;1.83;;
11590;SDS011;5851;54.050;9.974;2023-07-28T11:38:03;2.03;;;1.92;;
11590;SDS011;5851;54.050;9.974;2023-07-28T11:40:32;3.03;;;2.03;;
11590;SDS011;5851;54.050;9.974;2023-07-28T11:42:59;2.65;;;1.90;;
11590;SDS011;5851;54.050;9.974;2023-07-28T11:45:29;2.28;;;2.00;;
11590;SDS011;5851;54.050;9.974;2023-07-28T11:47:56;1.98;;;1.83;;
11590;SDS011;5851;54.050;9.974;2023-07-28T11:50:24;3.35;;;2.20;;
11590;SDS011;5851;54.050;9.974;2023-07-28T11:52:52;2.03;;;1.92;;
11590;SDS011;5851;54.050;9.974;2023-07-28T11:55:20;3.70;;;2.33;;
11590;SDS011;5851;54.050;9.974;2023-07-28T11:57:49;2.45;;;2.25;;
11590;SDS011;5851;54.050;9.974;2023-07-28T12:00:16;2.70;;;1.83;;
11590;SDS011;5851;54.050;9.974;2023-07-28T12:02:50;2.40;;;2.20;;
11590;SDS011;5851;54.050;9.974;2023-07-28T12:05:28;2.22;;;2.03;;
11590;SDS011;5851;54.050;9.974;2023-07-28T12:07:56;2.85;;;2.00;;
11590;SDS011;5851;54.050;9.974;2023-07-28T12:10:22;2.20;;;1.95;;
11590;SDS011;5851;54.050;9.974;2023-07-28T12:12:51;2.72;;;1.98;;
11590;SDS011;5851;54.050;9.974;2023-07-28T12:15:21;2.35;;;1.95;;
11590;SDS011;5851;54.050;9.974;2023-07-28T12:18:05;2.60;;;2.10;;
11590;SDS011;5851;54.050;9.974;2023-07-28T12:20:34;2.25;;;2.05;;
11590;SDS011;5851;54.050;9.974;2023-07-28T12:23:03;1.92;;;1.83;;
11590;SDS011;5851;54.050;9.974;2023-07-28T12:25:30;2.72;;;2.00;;
11590;SDS011;5851;54.050;9.974;2023-07-28T12:27:59;2.38;;;2.17;;
11590;SDS011;5851;54.050;9.974;2023-07-28T12:30:26;2.13;;;1.92;;
11590;SDS011;5851;54.050;9.974;2023-07-28T12:32:53;2.30;;;2.10;;
11590;SDS011;5851;54.050;9.974;2023-07-28T12:35:19;2.10;;;2.00;;
11590;SDS011;5851;54.050;9.974;2023-07-28T12:37:48;2.30;;;2.10;;
11590;SDS011;5851;54.050;9.974;2023-07-28T12:40:15;1.83;;;1.73;;
11590;SDS011;5851;54.050;9.974;2023-07-28T12:42:42;2.42;;;2.22;;
11590;SDS011;5851;54.050;9.974;2023-07-28T12:45:11;2.50;;;2.30;;
11590;SDS011;5851;54.050;9.974;2023-07-28T12:47:38;2.20;;;2.00;;
11590;SDS011;5851;54.050;9.974;2023-07-28T12:50:05;2.40;;;2.20;;
11590;SDS011;5851;54.050;9.974;2023-07-28T12:52:32;2.28;;;2.10;;
11590;SDS011;5851;54.050;9.974;2023-07-28T12:54:59;2.22;;;2.03;;
11590;SDS011;5851;54.050;9.974;2023-07-28T12:57:26;2.28;;;2.08;;
11590;SDS011;5851;54.050;9.974;2023-07-28T12:59:53;2.38;;;2.17;;
11590;SDS011;5851;54.050;9.974;2023-07-28T13:02:21;1.90;;;1.80;;
11590;SDS011;5851;54.050;9.974;2023-07-28T13:04:48;2.40;;;2.20;;
11590;SDS011;5851;54.050;9.974;2023-07-28T13:07:15;2.00;;;1.90;;
11590;SDS011;5851;54.050;9.974;2023-07-28T13:09:43;3.50;;;2.00;;
11590;SDS011;5851;54.050;9.974;2023-07-28T13:12:10;2.00;;;1.90;;
11590;SDS011;5851;54.050;9.974;2023-07-28T13:14:37;5.47;;;2.28;;
11590;SDS011;5851;54.050;9.974;2023-07-28T13:17:04;2.97;;;2.53;;
11590;SDS011;5851;54.050;9.974;2023-07-28T13:19:32;2.92;;;2.20;;
11590;SDS011;5851;54.050;9.974;2023-07-28T13:21:59;2.63;;;2.28;;
11590;SDS011;5851;54.050;9.974;2023-07-28T13:24:26;2.65;;;2.45;;
11590;SDS011;5851;54.050;9.974;2023-07-28T13:26:53;3.15;;;2.72;;
11590;SDS011;5851;54.050;9.974;2023-07-28T13:29:20;2.97;;;2.78;;
11590;SDS011;5851;54.050;9.974;2023-07-28T13:31:47;2.22;;;2.13;;
11590;SDS011;5851;54.050;9.974;2023-07-28T13:34:13;2.30;;;2.10;;
11590;SDS011;5851;54.050;9.974;2023-07-28T13:36:42;1.90;;;1.80;;
11590;SDS011;5851;54.050;9.974;2023-07-28T13:39:09;3.38;;;1.90;;
11590;SDS011;5851;54.050;9.974;2023-07-28T13:41:36;2.35;;;1.98;;
11590;SDS011;5851;54.050;9.974;2023-07-28T13:44:03;1.90;;;1.80;;
11590;SDS011;5851;54.050;9.974;2023-07-28T13:46:30;1.70;;;1.60;;
11590;SDS011;5851;54.050;9.974;2023-07-28T13:48:57;1.92;;;1.80;;
11590;SDS011;5851;54.050;9.974;2023-07-28T13:51:24;1.67;;;1.58;;
11590;SDS011;5851;54.050;9.974;2023-07-28T13:53:52;2.55;;;1.58;;
11590;SDS011;5851;54.050;9.974;2023-07-28T13:56:19;1.92;;;1.70;;
11590;SDS011;5851;54.050;9.974;2023-07-28T13:58:46;1.58;;;1.55;;
11590;SDS011;5851;54.050;9.974;2023-07-28T14:01:13;1.80;;;1.70;;
11590;SDS011;5851;54.050;9.974;2023-07-28T14:03:40;2.95;;;2.00;;
11590;SDS011;5851;54.050;9.974;2023-07-28T14:06:07;2.00;;;1.90;;
11590;SDS011;5851;54.050;9.974;2023-07-28T14:08:34;1.92;;;1.83;;
11590;SDS011;5851;54.050;9.974;2023-07-28T14:11:02;1.95;;;1.77;;
11590;SDS011;5851;54.050;9.974;2023-07-28T14:13:29;1.98;;;1.73;;
11590;SDS011;5851;54.050;9.974;2023-07-28T14:15:57;2.95;;;1.83;;
11590;SDS011;5851;54.050;9.974;2023-07-28T14:18:24;1.80;;;1.70;;
11590;SDS011;5851;54.050;9.974;2023-07-28T14:20:51;1.70;;;1.60;;
11590;SDS011;5851;54.050;9.974;2023-07-28T14:23:22;2.78;;;2.30;;
11590;SDS011;5851;54.050;9.974;2023-07-28T14:25:49;2.20;;;2.00;;
11590;SDS011;5851;54.050;9.974;2023-07-28T14:28:18;2.10;;;2.00;;
11590;SDS011;5851;54.050;9.974;2023-07-28T14:30:45;2.00;;;1.90;;
11590;SDS011;5851;54.050;9.974;2023-07-28T14:33:12;2.45;;;1.83;;
11590;SDS011;5851;54.050;9.974;2023-07-28T14:35:40;2.90;;;2.17;;
11590;SDS011;5851;54.050;9.974;2023-07-28T14:38:07;2.75;;;1.88;;
11590;SDS011;5851;54.050;9.974;2023-07-28T14:40:35;4.03;;;1.77;;
11590;SDS011;5851;54.050;9.974;2023-07-28T14:43:02;2.92;;;1.90;;
11590;SDS011;5851;54.050;9.974;2023-07-28T14:45:30;1.98;;;1.85;;
11590;SDS011;5851;54.050;9.974;2023-07-28T14:47:57;1.80;;;1.70;;
11590;SDS011;5851;54.050;9.974;2023-07-28T14:50:25;1.77;;;1.67;;
11590;SDS011;5851;54.050;9.974;2023-07-28T14:52:52;1.98;;;1.70;;
11590;SDS011;5851;54.050;9.974;2023-07-28T14:55:19;1.80;;;1.70;;
11590;SDS011;5851;54.050;9.974;2023-07-28T14:57:46;2.03;;;1.92;;
11590;SDS011;5851;54.050;9.974;2023-07-28T15:00:13;1.75;;;1.65;;
11590;SDS011;5851;54.050;9.974;2023-07-28T15:02:41;1.92;;;1.77;;
11590;SDS011;5851;54.050;9.974;2023-07-28T15:05:08;2.00;;;1.60;;
11590;SDS011;5851;54.050;9.974;2023-07-28T15:07:35;2.20;;;1.60;;